ENT415 EPWA-LTAI
Flight info
| Callsign | ENT415 |
|---|---|
| Flight time | N/A |
| Altitude | 35000 |
| Route | EVINA DCT KOTEK DCT KENIN DCT UPAMA/N0454F370 DCT ADORU UL606 CRD UL854 KOZLU |
| Aircraft | B38M/M-SDE1FGHILORVWXY/HB1 |
Departure
| Time | 2026-05-05 14:17 |
|---|---|
| Airport | Warsaw Chopin Airport (EPWA) |
Arrival
| Time | N/A |
|---|---|
| Airport | Antalya International Airport (LTAI) |
| Time | Latitude | Longitude | Altitude | Speed | Heading |
|---|---|---|---|---|---|
| 2026-05-05 14:06 | 52.17245 | 20.96633 | 352 ft | 0 kts | 207° |
| 2026-05-05 14:11 | 52.17244 | 20.96632 | 352 ft | 1 kts | 207° |
| 2026-05-05 14:12 | 52.17231 | 20.96621 | 360 ft | 5 kts | 208° |
| 2026-05-05 14:12 | 52.17198 | 20.96582 | 352 ft | 7 kts | 188° |
| 2026-05-05 14:12 | 52.17139 | 20.96612 | 353 ft | 11 kts | 155° |
| 2026-05-05 14:12 | 52.17068 | 20.96674 | 352 ft | 12 kts | 152° |
| 2026-05-05 14:13 | 52.16987 | 20.96745 | 354 ft | 14 kts | 152° |
| 2026-05-05 14:13 | 52.16895 | 20.96825 | 353 ft | 16 kts | 152° |
| 2026-05-05 14:13 | 52.16795 | 20.96913 | 357 ft | 17 kts | 152° |
| 2026-05-05 14:13 | 52.16682 | 20.97017 | 355 ft | 19 kts | 135° |
| 2026-05-05 14:14 | 52.16620 | 20.97202 | 351 ft | 19 kts | 115° |
| 2026-05-05 14:14 | 52.16563 | 20.97404 | 353 ft | 20 kts | 114° |
| 2026-05-05 14:14 | 52.16502 | 20.97623 | 356 ft | 23 kts | 114° |
| 2026-05-05 14:14 | 52.16435 | 20.97862 | 355 ft | 24 kts | 114° |
| 2026-05-05 14:15 | 52.16370 | 20.98110 | 359 ft | 24 kts | 115° |
| 2026-05-05 14:15 | 52.16318 | 20.98295 | 354 ft | 13 kts | 116° |
| 2026-05-05 14:15 | 52.16289 | 20.98340 | 356 ft | 2 kts | 173° |
| 2026-05-05 14:15 | 52.16262 | 20.98327 | 355 ft | 7 kts | 203° |
| 2026-05-05 14:16 | 52.16202 | 20.98286 | 356 ft | 10 kts | 203° |
| 2026-05-05 14:16 | 52.16153 | 20.98238 | 360 ft | 1 kts | 249° |
| 2026-05-05 14:16 | 52.16157 | 20.98210 | 361 ft | 8 kts | 287° |
| 2026-05-05 14:16 | 52.16273 | 20.97781 | 357 ft | 77 kts | 294° |
| 2026-05-05 14:17 | 52.16592 | 20.96655 | 353 ft | 139 kts | 295° |
| 2026-05-05 14:17 | 52.17054 | 20.94976 | 487 ft | 174 kts | 291° |
| 2026-05-05 14:17 | 52.17593 | 20.93128 | 1108 ft | 185 kts | 292° |
| 2026-05-05 14:17 | 52.18118 | 20.91172 | 1795 ft | 195 kts | 289° |
| 2026-05-05 14:18 | 52.18435 | 20.89001 | 2352 ft | 208 kts | 269° |
| 2026-05-05 14:18 | 52.18259 | 20.86568 | 2958 ft | 222 kts | 251° |
| 2026-05-05 14:18 | 52.17806 | 20.84039 | 3576 ft | 238 kts | 251° |
| 2026-05-05 14:18 | 52.17351 | 20.81360 | 4247 ft | 253 kts | 252° |
| 2026-05-05 14:19 | 52.16894 | 20.78573 | 5021 ft | 261 kts | 253° |
| 2026-05-05 14:19 | 52.16434 | 20.75702 | 5947 ft | 264 kts | 253° |
| 2026-05-05 14:19 | 52.15941 | 20.72769 | 6845 ft | 265 kts | 246° |
| 2026-05-05 14:19 | 52.14917 | 20.70331 | 7736 ft | 262 kts | 221° |
| 2026-05-05 14:20 | 52.13523 | 20.68468 | 8599 ft | 265 kts | 219° |
| 2026-05-05 14:20 | 52.12068 | 20.66549 | 9478 ft | 267 kts | 219° |
| 2026-05-05 14:20 | 52.10629 | 20.64682 | 10244 ft | 271 kts | 219° |
| 2026-05-05 14:20 | 52.09103 | 20.62723 | 10648 ft | 289 kts | 219° |
| 2026-05-05 14:21 | 52.07462 | 20.60632 | 10931 ft | 309 kts | 219° |
| 2026-05-05 14:21 | 52.05713 | 20.58414 | 11217 ft | 328 kts | 219° |
| 2026-05-05 14:21 | 52.03878 | 20.56097 | 11622 ft | 340 kts | 219° |
| 2026-05-05 14:21 | 52.02005 | 20.53735 | 12363 ft | 342 kts | 219° |
| 2026-05-05 14:22 | 52.00108 | 20.51348 | 13071 ft | 345 kts | 219° |
| 2026-05-05 14:22 | 51.98205 | 20.48954 | 13793 ft | 347 kts | 219° |
| 2026-05-05 14:22 | 51.96287 | 20.46552 | 14392 ft | 351 kts | 218° |
| 2026-05-05 14:22 | 51.94103 | 20.44739 | 14985 ft | 359 kts | 199° |
| 2026-05-05 14:23 | 51.91615 | 20.44082 | 15579 ft | 367 kts | 189° |
| 2026-05-05 14:23 | 51.89051 | 20.43646 | 16162 ft | 371 kts | 189° |
| 2026-05-05 14:23 | 51.86466 | 20.43227 | 16738 ft | 375 kts | 188° |
| 2026-05-05 14:23 | 51.83846 | 20.42818 | 17315 ft | 379 kts | 188° |
| 2026-05-05 14:24 | 51.81200 | 20.42411 | 17865 ft | 384 kts | 188° |
| 2026-05-05 14:24 | 51.78561 | 20.42008 | 18380 ft | 387 kts | 188° |
| 2026-05-05 14:24 | 51.75867 | 20.41597 | 18869 ft | 390 kts | 188° |
| 2026-05-05 14:24 | 51.73154 | 20.41185 | 19358 ft | 394 kts | 188° |
| 2026-05-05 14:25 | 51.70415 | 20.40769 | 19840 ft | 397 kts | 188° |
| 2026-05-05 14:25 | 51.67615 | 20.40345 | 20327 ft | 400 kts | 188° |
| 2026-05-05 14:25 | 51.64832 | 20.39923 | 20811 ft | 403 kts | 188° |
| 2026-05-05 14:25 | 51.62058 | 20.39503 | 21256 ft | 407 kts | 188° |
| 2026-05-05 14:26 | 51.59236 | 20.39077 | 21715 ft | 410 kts | 188° |
| 2026-05-05 14:26 | 51.56376 | 20.38645 | 22172 ft | 413 kts | 188° |
| 2026-05-05 14:26 | 51.53506 | 20.38212 | 22622 ft | 417 kts | 188° |
| 2026-05-05 14:26 | 51.50601 | 20.37775 | 23039 ft | 420 kts | 188° |
| 2026-05-05 14:27 | 51.47682 | 20.37336 | 23466 ft | 423 kts | 187° |
| 2026-05-05 14:27 | 51.44740 | 20.36894 | 23836 ft | 426 kts | 188° |
| 2026-05-05 14:27 | 51.41783 | 20.36450 | 24238 ft | 428 kts | 187° |
| 2026-05-05 14:27 | 51.38811 | 20.36005 | 24625 ft | 430 kts | 188° |
| 2026-05-05 14:28 | 51.35831 | 20.35560 | 25007 ft | 432 kts | 187° |
| 2026-05-05 14:28 | 51.32829 | 20.35112 | 25373 ft | 434 kts | 188° |
| 2026-05-05 14:28 | 51.29803 | 20.34662 | 25757 ft | 436 kts | 188° |
| 2026-05-05 14:28 | 51.26779 | 20.34212 | 26110 ft | 438 kts | 188° |
| 2026-05-05 14:29 | 51.23732 | 20.33759 | 26460 ft | 440 kts | 188° |
| 2026-05-05 14:29 | 51.20680 | 20.33307 | 26810 ft | 442 kts | 188° |
| 2026-05-05 14:29 | 51.17624 | 20.32854 | 27151 ft | 444 kts | 188° |
| 2026-05-05 14:29 | 51.14567 | 20.32401 | 27476 ft | 446 kts | 188° |
| 2026-05-05 14:30 | 51.11449 | 20.31941 | 27817 ft | 448 kts | 188° |
| 2026-05-05 14:30 | 51.08348 | 20.31483 | 28141 ft | 450 kts | 188° |
| 2026-05-05 14:30 | 51.05216 | 20.31021 | 28463 ft | 452 kts | 188° |
| 2026-05-05 14:30 | 51.02070 | 20.30559 | 28774 ft | 454 kts | 188° |
| 2026-05-05 14:31 | 50.98926 | 20.30097 | 29156 ft | 454 kts | 188° |
| 2026-05-05 14:31 | 50.95784 | 20.29636 | 29606 ft | 453 kts | 188° |
| 2026-05-05 14:31 | 50.92653 | 20.29177 | 30043 ft | 451 kts | 188° |
| 2026-05-05 14:31 | 50.89533 | 20.28720 | 30410 ft | 450 kts | 188° |
| 2026-05-05 14:32 | 50.86418 | 20.28265 | 30754 ft | 449 kts | 188° |
| 2026-05-05 14:32 | 50.83304 | 20.27811 | 31110 ft | 448 kts | 188° |
| 2026-05-05 14:32 | 50.80205 | 20.27358 | 31451 ft | 448 kts | 188° |
| 2026-05-05 14:32 | 50.77097 | 20.26906 | 31793 ft | 447 kts | 188° |
| 2026-05-05 14:33 | 50.74001 | 20.26456 | 32129 ft | 446 kts | 188° |
| 2026-05-05 14:33 | 50.70914 | 20.26008 | 32472 ft | 445 kts | 188° |
| 2026-05-05 14:33 | 50.67826 | 20.25578 | 32800 ft | 445 kts | 185° |
| 2026-05-05 14:33 | 50.64769 | 20.25949 | 33147 ft | 450 kts | 169° |
| 2026-05-05 14:34 | 50.61814 | 20.27594 | 33449 ft | 454 kts | 158° |
| 2026-05-05 14:34 | 50.58942 | 20.29693 | 33690 ft | 455 kts | 158° |
| 2026-05-05 14:34 | 50.56076 | 20.31830 | 33937 ft | 456 kts | 158° |
| 2026-05-05 14:34 | 50.53218 | 20.33993 | 34190 ft | 456 kts | 157° |
| 2026-05-05 14:35 | 50.50363 | 20.36174 | 34429 ft | 456 kts | 157° |
| 2026-05-05 14:35 | 50.47509 | 20.38360 | 34664 ft | 456 kts | 157° |
| 2026-05-05 14:35 | 50.44650 | 20.40549 | 34901 ft | 456 kts | 157° |
| 2026-05-05 14:35 | 50.41801 | 20.42728 | 35125 ft | 456 kts | 157° |
| 2026-05-05 14:36 | 50.38951 | 20.44905 | 35351 ft | 456 kts | 157° |
| 2026-05-05 14:36 | 50.36102 | 20.47080 | 35574 ft | 455 kts | 157° |
| 2026-05-05 14:36 | 50.33252 | 20.49250 | 35790 ft | 455 kts | 157° |
| 2026-05-05 14:36 | 50.30403 | 20.51418 | 35993 ft | 455 kts | 157° |
| 2026-05-05 14:37 | 50.27554 | 20.53582 | 36193 ft | 455 kts | 157° |
| 2026-05-05 14:37 | 50.24693 | 20.55754 | 36378 ft | 455 kts | 157° |
| 2026-05-05 14:37 | 50.21848 | 20.57910 | 36550 ft | 456 kts | 157° |
| 2026-05-05 14:37 | 50.18993 | 20.60069 | 36729 ft | 456 kts | 156° |
| 2026-05-05 14:38 | 50.16173 | 20.62202 | 36838 ft | 456 kts | 156° |
| 2026-05-05 14:38 | 50.13309 | 20.64363 | 36828 ft | 456 kts | 157° |
| 2026-05-05 14:38 | 50.07609 | 20.68656 | 36829 ft | 455 kts | 156° |
| 2026-05-05 14:39 | 50.01901 | 20.72945 | 36836 ft | 455 kts | 156° |
| 2026-05-05 14:39 | 49.96191 | 20.77223 | 36839 ft | 455 kts | 156° |
| 2026-05-05 14:40 | 49.90494 | 20.81480 | 36836 ft | 455 kts | 156° |
| 2026-05-05 14:40 | 49.85752 | 20.85017 | 36850 ft | 455 kts | 156° |
| 2026-05-05 14:41 | 49.80033 | 20.89269 | 36847 ft | 456 kts | 156° |
| 2026-05-05 14:41 | 49.73390 | 20.94196 | 36858 ft | 456 kts | 156° |
| 2026-05-05 14:42 | 49.68596 | 20.97742 | 36860 ft | 456 kts | 157° |
| 2026-05-05 14:42 | 49.62856 | 21.01976 | 36874 ft | 456 kts | 156° |
| 2026-05-05 14:43 | 49.57120 | 21.06197 | 36883 ft | 457 kts | 156° |
| 2026-05-05 14:43 | 49.51407 | 21.10391 | 36888 ft | 457 kts | 157° |
| 2026-05-05 14:44 | 49.45645 | 21.14609 | 36884 ft | 458 kts | 157° |
| 2026-05-05 14:44 | 49.39882 | 21.18817 | 36888 ft | 459 kts | 157° |
| 2026-05-05 14:45 | 49.34104 | 21.23025 | 36897 ft | 460 kts | 157° |
| 2026-05-05 14:45 | 49.28309 | 21.27234 | 36897 ft | 459 kts | 157° |
| 2026-05-05 14:46 | 49.22564 | 21.31397 | 36902 ft | 460 kts | 157° |
| 2026-05-05 14:46 | 49.16776 | 21.35579 | 36896 ft | 460 kts | 157° |
| 2026-05-05 14:47 | 49.10989 | 21.39749 | 36899 ft | 460 kts | 157° |
| 2026-05-05 14:47 | 49.05180 | 21.43925 | 36903 ft | 461 kts | 157° |
| 2026-05-05 14:48 | 48.99374 | 21.48088 | 36904 ft | 461 kts | 156° |
| 2026-05-05 14:48 | 48.93574 | 21.52227 | 36935 ft | 460 kts | 156° |
| 2026-05-05 14:49 | 48.87755 | 21.56387 | 36912 ft | 461 kts | 157° |
| 2026-05-05 14:49 | 48.81950 | 21.60518 | 36912 ft | 461 kts | 157° |
| 2026-05-05 14:50 | 48.76131 | 21.64646 | 36913 ft | 461 kts | 156° |
| 2026-05-05 14:50 | 48.70313 | 21.68764 | 36919 ft | 461 kts | 156° |
| 2026-05-05 14:51 | 48.64534 | 21.72845 | 36916 ft | 461 kts | 156° |
| 2026-05-05 14:51 | 48.58705 | 21.76949 | 36913 ft | 462 kts | 156° |
| 2026-05-05 14:52 | 48.52886 | 21.81038 | 36918 ft | 462 kts | 156° |
| 2026-05-05 14:52 | 48.47055 | 21.85126 | 36916 ft | 462 kts | 156° |
| 2026-05-05 14:53 | 48.41210 | 21.89213 | 36920 ft | 462 kts | 156° |
| 2026-05-05 14:53 | 48.35423 | 21.93418 | 36917 ft | 463 kts | 152° |
| 2026-05-05 14:54 | 48.29814 | 21.98057 | 36922 ft | 463 kts | 153° |
| 2026-05-05 14:54 | 48.24152 | 22.02652 | 36923 ft | 463 kts | 153° |
| 2026-05-05 14:55 | 48.18424 | 22.07278 | 36925 ft | 463 kts | 153° |
| 2026-05-05 14:55 | 48.12744 | 22.11854 | 36930 ft | 463 kts | 153° |
| 2026-05-05 14:56 | 48.07071 | 22.16413 | 36927 ft | 463 kts | 153° |
| 2026-05-05 14:56 | 48.01374 | 22.20979 | 36930 ft | 464 kts | 153° |
| 2026-05-05 14:57 | 47.95678 | 22.25533 | 36936 ft | 464 kts | 153° |
| 2026-05-05 14:57 | 47.89988 | 22.30071 | 36933 ft | 464 kts | 153° |
| 2026-05-05 14:58 | 47.84288 | 22.34605 | 36938 ft | 464 kts | 153° |
| 2026-05-05 14:58 | 47.78584 | 22.39132 | 36939 ft | 464 kts | 152° |
| 2026-05-05 14:59 | 47.72875 | 22.43650 | 36944 ft | 464 kts | 152° |
| 2026-05-05 14:59 | 47.67197 | 22.48134 | 36950 ft | 464 kts | 152° |
| 2026-05-05 15:00 | 47.62421 | 22.51895 | 36952 ft | 464 kts | 152° |
| 2026-05-05 15:00 | 47.55785 | 22.57110 | 36953 ft | 464 kts | 152° |
| 2026-05-05 15:01 | 47.50072 | 22.61587 | 36950 ft | 465 kts | 152° |
| 2026-05-05 15:01 | 47.44356 | 22.66056 | 36949 ft | 465 kts | 152° |
| 2026-05-05 15:02 | 47.38592 | 22.70550 | 36950 ft | 465 kts | 152° |
| 2026-05-05 15:02 | 47.32899 | 22.74979 | 36948 ft | 465 kts | 152° |
| 2026-05-05 15:03 | 47.27168 | 22.79425 | 36954 ft | 465 kts | 152° |
| 2026-05-05 15:03 | 47.21422 | 22.83873 | 36951 ft | 465 kts | 152° |
| 2026-05-05 15:04 | 47.15682 | 22.88305 | 36952 ft | 466 kts | 152° |
| 2026-05-05 15:04 | 47.09974 | 22.92705 | 36953 ft | 466 kts | 152° |
| 2026-05-05 15:05 | 47.01361 | 22.99341 | 36958 ft | 466 kts | 152° |
| 2026-05-05 15:06 | 46.95624 | 23.03746 | 36954 ft | 466 kts | 152° |
| 2026-05-05 15:06 | 46.89867 | 23.08157 | 36962 ft | 466 kts | 152° |
| 2026-05-05 15:07 | 46.84105 | 23.12560 | 36959 ft | 467 kts | 152° |
| 2026-05-05 15:07 | 46.78350 | 23.16948 | 36961 ft | 467 kts | 152° |
| 2026-05-05 15:08 | 46.72579 | 23.21338 | 36963 ft | 467 kts | 152° |
| 2026-05-05 15:08 | 46.66808 | 23.25716 | 36963 ft | 468 kts | 152° |
| 2026-05-05 15:09 | 46.61079 | 23.30052 | 36965 ft | 467 kts | 152° |
| 2026-05-05 15:09 | 46.55256 | 23.34447 | 36965 ft | 468 kts | 152° |
| 2026-05-05 15:10 | 46.49518 | 23.38770 | 36964 ft | 468 kts | 152° |
| 2026-05-05 15:10 | 46.43725 | 23.43122 | 36959 ft | 469 kts | 152° |
| 2026-05-05 15:11 | 46.37933 | 23.47464 | 36962 ft | 469 kts | 152° |
| 2026-05-05 15:11 | 46.32130 | 23.51804 | 36964 ft | 469 kts | 152° |
| 2026-05-05 15:12 | 46.26323 | 23.56135 | 36958 ft | 469 kts | 152° |
| 2026-05-05 15:12 | 46.20520 | 23.60454 | 36950 ft | 469 kts | 152° |
| 2026-05-05 15:13 | 46.14712 | 23.64767 | 36952 ft | 469 kts | 152° |
| 2026-05-05 15:13 | 46.08895 | 23.69074 | 36959 ft | 470 kts | 153° |
| 2026-05-05 15:14 | 46.03082 | 23.73370 | 36958 ft | 469 kts | 152° |
| 2026-05-05 15:14 | 45.97273 | 23.77651 | 36965 ft | 469 kts | 152° |
| 2026-05-05 15:15 | 45.91453 | 23.81932 | 36966 ft | 470 kts | 152° |
| 2026-05-05 15:15 | 45.85671 | 23.86174 | 36969 ft | 470 kts | 153° |
| 2026-05-05 15:16 | 45.79831 | 23.90448 | 36966 ft | 470 kts | 153° |
| 2026-05-05 15:16 | 45.73997 | 23.94707 | 36970 ft | 470 kts | 153° |
| 2026-05-05 15:17 | 45.68154 | 23.98964 | 36969 ft | 471 kts | 153° |
| 2026-05-05 15:17 | 45.62311 | 24.03211 | 36968 ft | 471 kts | 153° |
| 2026-05-05 15:18 | 45.56463 | 24.07451 | 36969 ft | 471 kts | 153° |
| 2026-05-05 15:18 | 45.51591 | 24.10975 | 36979 ft | 472 kts | 153° |
| 2026-05-05 15:19 | 45.45730 | 24.15207 | 36980 ft | 472 kts | 153° |
| 2026-05-05 15:19 | 45.39861 | 24.19434 | 36983 ft | 473 kts | 153° |
| 2026-05-05 15:20 | 45.33995 | 24.23648 | 36978 ft | 472 kts | 153° |
| 2026-05-05 15:20 | 45.28124 | 24.27857 | 36981 ft | 473 kts | 153° |
| 2026-05-05 15:21 | 45.22245 | 24.32062 | 36977 ft | 473 kts | 153° |
| 2026-05-05 15:21 | 45.16331 | 24.36282 | 36977 ft | 473 kts | 153° |
| 2026-05-05 15:22 | 45.10476 | 24.40450 | 36975 ft | 473 kts | 153° |
| 2026-05-05 15:22 | 45.04592 | 24.44629 | 36975 ft | 474 kts | 153° |
| 2026-05-05 15:23 | 44.98649 | 24.48840 | 36977 ft | 474 kts | 153° |
| 2026-05-05 15:23 | 44.92756 | 24.53006 | 36971 ft | 474 kts | 153° |
| 2026-05-05 15:24 | 44.86843 | 24.57176 | 36971 ft | 474 kts | 153° |
| 2026-05-05 15:24 | 44.80977 | 24.61304 | 36972 ft | 474 kts | 153° |
| 2026-05-05 15:25 | 44.75071 | 24.65450 | 36974 ft | 475 kts | 153° |
| 2026-05-05 15:25 | 44.69150 | 24.69597 | 36979 ft | 476 kts | 153° |
| 2026-05-05 15:26 | 44.63226 | 24.73737 | 36978 ft | 476 kts | 153° |
| 2026-05-05 15:26 | 44.57283 | 24.77881 | 36978 ft | 476 kts | 153° |
| 2026-05-05 15:27 | 44.51336 | 24.82018 | 36982 ft | 476 kts | 153° |
| 2026-05-05 15:27 | 44.45402 | 24.86136 | 36985 ft | 477 kts | 153° |
| 2026-05-05 15:28 | 44.39442 | 24.90264 | 36987 ft | 478 kts | 153° |
| 2026-05-05 15:28 | 44.33471 | 24.94389 | 36988 ft | 477 kts | 153° |
| 2026-05-05 15:29 | 44.27517 | 24.98493 | 36991 ft | 478 kts | 153° |
| 2026-05-05 15:29 | 44.21587 | 25.02571 | 36985 ft | 478 kts | 153° |
| 2026-05-05 15:30 | 44.15618 | 25.06667 | 36991 ft | 478 kts | 153° |
| 2026-05-05 15:30 | 44.09644 | 25.10757 | 36998 ft | 478 kts | 153° |
| 2026-05-05 15:31 | 44.03664 | 25.14842 | 37000 ft | 478 kts | 153° |
| 2026-05-05 15:31 | 43.97677 | 25.18922 | 36987 ft | 478 kts | 153° |
| 2026-05-05 15:32 | 43.91703 | 25.22984 | 36987 ft | 478 kts | 153° |
| 2026-05-05 15:32 | 43.85720 | 25.27044 | 36993 ft | 479 kts | 153° |
| 2026-05-05 15:33 | 43.79762 | 25.31077 | 36996 ft | 479 kts | 153° |
| 2026-05-05 15:33 | 43.73774 | 25.35121 | 37012 ft | 479 kts | 153° |
| 2026-05-05 15:34 | 43.67784 | 25.39159 | 36998 ft | 479 kts | 153° |
| 2026-05-05 15:34 | 43.61783 | 25.43194 | 37013 ft | 479 kts | 153° |
| 2026-05-05 15:35 | 43.55774 | 25.47225 | 36991 ft | 479 kts | 153° |
| 2026-05-05 15:35 | 43.49772 | 25.51243 | 37002 ft | 479 kts | 153° |
| 2026-05-05 15:36 | 43.43766 | 25.55255 | 37002 ft | 479 kts | 153° |
| 2026-05-05 15:36 | 43.37806 | 25.59227 | 37007 ft | 479 kts | 153° |
| 2026-05-05 15:37 | 43.31793 | 25.63226 | 36991 ft | 480 kts | 153° |
| 2026-05-05 15:37 | 43.25776 | 25.67218 | 36997 ft | 480 kts | 153° |
| 2026-05-05 15:38 | 43.19772 | 25.71194 | 36993 ft | 480 kts | 153° |
| 2026-05-05 15:38 | 43.13761 | 25.75165 | 36990 ft | 480 kts | 153° |
| 2026-05-05 15:39 | 43.07752 | 25.79126 | 36998 ft | 480 kts | 153° |
| 2026-05-05 15:39 | 43.01762 | 25.83065 | 36999 ft | 480 kts | 153° |
| 2026-05-05 15:40 | 42.95737 | 25.87019 | 36998 ft | 480 kts | 154° |
| 2026-05-05 15:40 | 42.89712 | 25.90965 | 37017 ft | 480 kts | 154° |
| 2026-05-05 15:41 | 42.83682 | 25.94906 | 37014 ft | 480 kts | 154° |
| 2026-05-05 15:41 | 42.77655 | 25.98835 | 37016 ft | 481 kts | 154° |
| 2026-05-05 15:42 | 42.71615 | 26.02765 | 37014 ft | 481 kts | 154° |
| 2026-05-05 15:42 | 42.65561 | 26.06695 | 37019 ft | 482 kts | 154° |
| 2026-05-05 15:43 | 42.59510 | 26.10615 | 37020 ft | 482 kts | 154° |
| 2026-05-05 15:43 | 42.53482 | 26.14511 | 37017 ft | 482 kts | 154° |
| 2026-05-05 15:44 | 42.47418 | 26.18423 | 37018 ft | 482 kts | 154° |
| 2026-05-05 15:44 | 42.41370 | 26.22315 | 37015 ft | 482 kts | 154° |
| 2026-05-05 15:45 | 42.35307 | 26.26209 | 37014 ft | 481 kts | 154° |
| 2026-05-05 15:45 | 42.29253 | 26.30089 | 37016 ft | 481 kts | 154° |
| 2026-05-05 15:46 | 42.23211 | 26.33953 | 37015 ft | 480 kts | 154° |
| 2026-05-05 15:46 | 42.17173 | 26.37806 | 37018 ft | 480 kts | 154° |